sensor_id;sensor_type;location;lat;lon;timestamp;P1;durP1;ratioP1;P2;durP2;ratioP2
2416;SDS011;1219;48.736;9.330;2022-08-04T00:01:44;3.60;;;2.00;;
2416;SDS011;1219;48.736;9.330;2022-08-04T00:04:19;2.17;;;1.97;;
2416;SDS011;1219;48.736;9.330;2022-08-04T00:06:57;2.50;;;2.03;;
2416;SDS011;1219;48.736;9.330;2022-08-04T00:09:35;2.83;;;1.77;;
2416;SDS011;1219;48.736;9.330;2022-08-04T00:12:02;2.20;;;2.00;;
2416;SDS011;1219;48.736;9.330;2022-08-04T00:14:34;2.20;;;2.00;;
2416;SDS011;1219;48.736;9.330;2022-08-04T00:17:05;1.90;;;1.80;;
2416;SDS011;1219;48.736;9.330;2022-08-04T00:19:34;3.00;;;2.00;;
2416;SDS011;1219;48.736;9.330;2022-08-04T00:22:04;2.73;;;1.90;;
2416;SDS011;1219;48.736;9.330;2022-08-04T00:24:33;2.77;;;2.13;;
2416;SDS011;1219;48.736;9.330;2022-08-04T00:27:00;2.27;;;2.07;;
2416;SDS011;1219;48.736;9.330;2022-08-04T00:29:26;2.13;;;1.90;;
2416;SDS011;1219;48.736;9.330;2022-08-04T00:31:53;3.07;;;2.73;;
2416;SDS011;1219;48.736;9.330;2022-08-04T00:34:20;2.83;;;2.53;;
2416;SDS011;1219;48.736;9.330;2022-08-04T00:36:46;2.10;;;1.90;;
2416;SDS011;1219;48.736;9.330;2022-08-04T00:39:12;4.50;;;2.77;;
2416;SDS011;1219;48.736;9.330;2022-08-04T00:46:52;2.60;;;2.10;;
2416;SDS011;1219;48.736;9.330;2022-08-04T00:52:00;1.90;;;1.80;;
2416;SDS011;1219;48.736;9.330;2022-08-04T00:54:37;1.90;;;1.80;;
2416;SDS011;1219;48.736;9.330;2022-08-04T01:05:04;5.67;;;2.53;;
2416;SDS011;1219;48.736;9.330;2022-08-04T01:07:36;2.30;;;2.10;;
2416;SDS011;1219;48.736;9.330;2022-08-04T01:13:10;2.90;;;2.20;;
2416;SDS011;1219;48.736;9.330;2022-08-04T01:18:34;2.90;;;2.60;;
2416;SDS011;1219;48.736;9.330;2022-08-04T01:21:04;2.97;;;2.37;;
2416;SDS011;1219;48.736;9.330;2022-08-04T01:23:44;2.13;;;2.03;;
2416;SDS011;1219;48.736;9.330;2022-08-04T01:29:08;2.40;;;2.27;;
2416;SDS011;1219;48.736;9.330;2022-08-04T01:34:10;2.63;;;2.30;;
2416;SDS011;1219;48.736;9.330;2022-08-04T01:36:36;2.43;;;2.23;;
2416;SDS011;1219;48.736;9.330;2022-08-04T01:39:05;2.60;;;2.40;;
2416;SDS011;1219;48.736;9.330;2022-08-04T01:41:51;3.10;;;2.20;;
2416;SDS011;1219;48.736;9.330;2022-08-04T01:44:18;2.33;;;2.13;;
2416;SDS011;1219;48.736;9.330;2022-08-04T01:46:45;6.10;;;2.33;;
2416;SDS011;1219;48.736;9.330;2022-08-04T01:49:11;3.80;;;2.40;;
2416;SDS011;1219;48.736;9.330;2022-08-04T01:51:38;2.97;;;2.40;;
2416;SDS011;1219;48.736;9.330;2022-08-04T01:54:04;2.60;;;2.40;;
2416;SDS011;1219;48.736;9.330;2022-08-04T01:56:32;2.37;;;2.17;;
2416;SDS011;1219;48.736;9.330;2022-08-04T01:58:58;2.97;;;2.57;;
2416;SDS011;1219;48.736;9.330;2022-08-04T02:01:24;2.10;;;2.00;;
2416;SDS011;1219;48.736;9.330;2022-08-04T02:03:50;6.70;;;2.40;;
2416;SDS011;1219;48.736;9.330;2022-08-04T02:11:15;2.23;;;2.10;;
2416;SDS011;1219;48.736;9.330;2022-08-04T02:13:45;2.60;;;2.40;;
2416;SDS011;1219;48.736;9.330;2022-08-04T02:19:01;2.67;;;2.23;;
2416;SDS011;1219;48.736;9.330;2022-08-04T02:21:29;3.20;;;2.47;;
2416;SDS011;1219;48.736;9.330;2022-08-04T02:24:05;2.50;;;2.30;;
2416;SDS011;1219;48.736;9.330;2022-08-04T02:26:33;2.30;;;2.00;;
2416;SDS011;1219;48.736;9.330;2022-08-04T02:29:16;2.90;;;2.37;;
2416;SDS011;1219;48.736;9.330;2022-08-04T02:36:59;9.60;;;4.33;;
2416;SDS011;1219;48.736;9.330;2022-08-04T02:39:25;5.03;;;2.57;;
2416;SDS011;1219;48.736;9.330;2022-08-04T02:41:53;2.47;;;2.23;;
2416;SDS011;1219;48.736;9.330;2022-08-04T02:44:21;3.03;;;2.30;;
2416;SDS011;1219;48.736;9.330;2022-08-04T02:46:49;2.87;;;2.60;;
2416;SDS011;1219;48.736;9.330;2022-08-04T02:49:16;2.20;;;2.00;;
2416;SDS011;1219;48.736;9.330;2022-08-04T02:51:42;2.60;;;2.00;;
2416;SDS011;1219;48.736;9.330;2022-08-04T02:54:09;2.53;;;2.30;;
2416;SDS011;1219;48.736;9.330;2022-08-04T02:56:36;2.83;;;2.63;;
2416;SDS011;1219;48.736;9.330;2022-08-04T02:59:04;2.20;;;2.10;;
2416;SDS011;1219;48.736;9.330;2022-08-04T03:01:31;2.93;;;2.37;;
2416;SDS011;1219;48.736;9.330;2022-08-04T03:12:04;2.57;;;2.37;;
2416;SDS011;1219;48.736;9.330;2022-08-04T03:22:37;2.53;;;2.37;;
2416;SDS011;1219;48.736;9.330;2022-08-04T03:30:17;2.70;;;2.50;;
2416;SDS011;1219;48.736;9.330;2022-08-04T03:48:21;2.50;;;2.30;;
2416;SDS011;1219;48.736;9.330;2022-08-04T03:53:42;2.70;;;2.50;;
2416;SDS011;1219;48.736;9.330;2022-08-04T04:01:30;2.80;;;2.60;;
2416;SDS011;1219;48.736;9.330;2022-08-04T04:09:27;3.00;;;2.70;;
2416;SDS011;1219;48.736;9.330;2022-08-04T04:20:06;3.23;;;3.03;;
2416;SDS011;1219;48.736;9.330;2022-08-04T04:22:53;4.23;;;2.70;;
2416;SDS011;1219;48.736;9.330;2022-08-04T04:30:54;2.53;;;2.30;;
2416;SDS011;1219;48.736;9.330;2022-08-04T04:33:31;3.50;;;3.20;;
2416;SDS011;1219;48.736;9.330;2022-08-04T04:36:16;3.43;;;2.90;;
2416;SDS011;1219;48.736;9.330;2022-08-04T04:46:05;2.67;;;2.47;;
2416;SDS011;1219;48.736;9.330;2022-08-04T04:48:44;4.77;;;2.97;;
2416;SDS011;1219;48.736;9.330;2022-08-04T04:58:58;5.13;;;2.83;;
2416;SDS011;1219;48.736;9.330;2022-08-04T05:03:56;3.40;;;3.10;;
2416;SDS011;1219;48.736;9.330;2022-08-04T05:06:28;2.93;;;2.73;;
2416;SDS011;1219;48.736;9.330;2022-08-04T05:09:13;3.30;;;2.70;;
2416;SDS011;1219;48.736;9.330;2022-08-04T05:14:10;5.40;;;3.40;;
2416;SDS011;1219;48.736;9.330;2022-08-04T05:16:39;3.27;;;2.97;;
2416;SDS011;1219;48.736;9.330;2022-08-04T05:21:40;3.77;;;3.47;;
2416;SDS011;1219;48.736;9.330;2022-08-04T05:24:08;3.47;;;3.17;;
2416;SDS011;1219;48.736;9.330;2022-08-04T05:26:37;5.80;;;3.07;;
2416;SDS011;1219;48.736;9.330;2022-08-04T05:29:06;3.73;;;2.53;;
2416;SDS011;1219;48.736;9.330;2022-08-04T05:31:39;3.47;;;3.17;;
2416;SDS011;1219;48.736;9.330;2022-08-04T05:34:17;3.50;;;3.20;;
2416;SDS011;1219;48.736;9.330;2022-08-04T05:36:53;4.90;;;3.43;;
2416;SDS011;1219;48.736;9.330;2022-08-04T05:39:24;3.33;;;3.03;;
2416;SDS011;1219;48.736;9.330;2022-08-04T05:41:50;5.90;;;4.30;;
2416;SDS011;1219;48.736;9.330;2022-08-04T05:44:17;4.50;;;3.50;;
2416;SDS011;1219;48.736;9.330;2022-08-04T05:46:44;3.37;;;2.70;;
2416;SDS011;1219;48.736;9.330;2022-08-04T05:49:12;2.97;;;2.77;;
2416;SDS011;1219;48.736;9.330;2022-08-04T05:51:38;3.73;;;3.43;;
2416;SDS011;1219;48.736;9.330;2022-08-04T05:54:04;3.40;;;3.20;;
2416;SDS011;1219;48.736;9.330;2022-08-04T05:56:31;3.20;;;3.00;;
2416;SDS011;1219;48.736;9.330;2022-08-04T05:58:58;3.43;;;3.00;;
2416;SDS011;1219;48.736;9.330;2022-08-04T06:01:25;4.80;;;3.10;;
2416;SDS011;1219;48.736;9.330;2022-08-04T06:03:51;3.30;;;3.07;;
2416;SDS011;1219;48.736;9.330;2022-08-04T06:06:18;3.30;;;3.10;;
2416;SDS011;1219;48.736;9.330;2022-08-04T06:08:45;4.63;;;3.50;;
2416;SDS011;1219;48.736;9.330;2022-08-04T06:11:11;4.20;;;3.90;;
2416;SDS011;1219;48.736;9.330;2022-08-04T06:13:41;2.87;;;2.67;;
2416;SDS011;1219;48.736;9.330;2022-08-04T06:16:07;3.70;;;3.50;;
2416;SDS011;1219;48.736;9.330;2022-08-04T06:18:34;4.00;;;3.60;;
2416;SDS011;1219;48.736;9.330;2022-08-04T06:21:01;3.77;;;3.40;;
2416;SDS011;1219;48.736;9.330;2022-08-04T06:23:28;3.33;;;3.03;;
2416;SDS011;1219;48.736;9.330;2022-08-04T06:25:56;5.03;;;3.27;;
2416;SDS011;1219;48.736;9.330;2022-08-04T06:28:23;6.00;;;3.63;;
2416;SDS011;1219;48.736;9.330;2022-08-04T06:30:50;3.30;;;2.80;;
2416;SDS011;1219;48.736;9.330;2022-08-04T06:33:18;4.43;;;3.60;;
2416;SDS011;1219;48.736;9.330;2022-08-04T06:35:51;3.93;;;3.63;;
2416;SDS011;1219;48.736;9.330;2022-08-04T06:38:22;3.17;;;2.87;;
2416;SDS011;1219;48.736;9.330;2022-08-04T06:40:49;2.90;;;2.70;;
2416;SDS011;1219;48.736;9.330;2022-08-04T06:43:15;3.27;;;2.97;;
2416;SDS011;1219;48.736;9.330;2022-08-04T06:45:41;3.17;;;2.97;;
2416;SDS011;1219;48.736;9.330;2022-08-04T06:48:10;4.40;;;3.00;;
2416;SDS011;1219;48.736;9.330;2022-08-04T06:50:36;2.90;;;2.70;;
2416;SDS011;1219;48.736;9.330;2022-08-04T06:53:03;7.23;;;2.90;;
2416;SDS011;1219;48.736;9.330;2022-08-04T06:55:30;3.70;;;3.50;;
2416;SDS011;1219;48.736;9.330;2022-08-04T06:57:56;3.47;;;3.10;;
2416;SDS011;1219;48.736;9.330;2022-08-04T07:00:23;4.00;;;3.03;;
2416;SDS011;1219;48.736;9.330;2022-08-04T07:02:50;6.67;;;3.00;;
2416;SDS011;1219;48.736;9.330;2022-08-04T07:05:17;3.53;;;2.77;;
2416;SDS011;1219;48.736;9.330;2022-08-04T07:07:44;3.40;;;3.10;;
2416;SDS011;1219;48.736;9.330;2022-08-04T07:10:11;7.47;;;3.77;;
2416;SDS011;1219;48.736;9.330;2022-08-04T07:12:37;5.33;;;3.57;;
2416;SDS011;1219;48.736;9.330;2022-08-04T07:15:04;4.13;;;2.97;;
2416;SDS011;1219;48.736;9.330;2022-08-04T07:17:30;2.63;;;2.43;;
2416;SDS011;1219;48.736;9.330;2022-08-04T07:19:57;4.60;;;3.13;;
2416;SDS011;1219;48.736;9.330;2022-08-04T07:22:25;4.10;;;3.03;;
2416;SDS011;1219;48.736;9.330;2022-08-04T07:24:55;4.90;;;3.50;;
2416;SDS011;1219;48.736;9.330;2022-08-04T07:27:21;4.53;;;3.03;;
2416;SDS011;1219;48.736;9.330;2022-08-04T07:29:47;2.93;;;2.73;;
2416;SDS011;1219;48.736;9.330;2022-08-04T07:32:14;3.20;;;2.90;;
2416;SDS011;1219;48.736;9.330;2022-08-04T07:34:41;3.57;;;2.67;;
2416;SDS011;1219;48.736;9.330;2022-08-04T07:37:07;9.10;;;2.40;;
2416;SDS011;1219;48.736;9.330;2022-08-04T07:39:34;3.03;;;2.83;;
2416;SDS011;1219;48.736;9.330;2022-08-04T07:42:01;3.00;;;2.80;;
2416;SDS011;1219;48.736;9.330;2022-08-04T07:44:27;4.17;;;3.03;;
2416;SDS011;1219;48.736;9.330;2022-08-04T07:46:54;3.47;;;2.30;;
2416;SDS011;1219;48.736;9.330;2022-08-04T07:49:20;2.93;;;2.73;;
2416;SDS011;1219;48.736;9.330;2022-08-04T07:51:46;2.67;;;2.47;;
2416;SDS011;1219;48.736;9.330;2022-08-04T07:54:12;3.00;;;2.80;;
2416;SDS011;1219;48.736;9.330;2022-08-04T07:56:39;4.33;;;2.77;;
2416;SDS011;1219;48.736;9.330;2022-08-04T07:59:05;2.70;;;2.50;;
2416;SDS011;1219;48.736;9.330;2022-08-04T08:01:33;5.00;;;2.70;;
2416;SDS011;1219;48.736;9.330;2022-08-04T08:04:00;3.27;;;3.07;;
2416;SDS011;1219;48.736;9.330;2022-08-04T08:06:26;3.00;;;2.50;;
2416;SDS011;1219;48.736;9.330;2022-08-04T08:08:54;3.00;;;2.43;;
2416;SDS011;1219;48.736;9.330;2022-08-04T08:11:20;2.70;;;2.50;;
2416;SDS011;1219;48.736;9.330;2022-08-04T08:13:46;2.80;;;2.60;;
2416;SDS011;1219;48.736;9.330;2022-08-04T08:16:12;2.70;;;2.50;;
2416;SDS011;1219;48.736;9.330;2022-08-04T08:18:38;3.40;;;2.70;;
2416;SDS011;1219;48.736;9.330;2022-08-04T08:21:04;3.67;;;2.60;;
2416;SDS011;1219;48.736;9.330;2022-08-04T08:23:31;3.83;;;2.40;;
2416;SDS011;1219;48.736;9.330;2022-08-04T08:25:59;4.03;;;2.80;;
2416;SDS011;1219;48.736;9.330;2022-08-04T08:28:25;2.20;;;2.10;;
2416;SDS011;1219;48.736;9.330;2022-08-04T08:30:51;2.67;;;2.10;;
2416;SDS011;1219;48.736;9.330;2022-08-04T08:33:17;4.93;;;2.30;;
2416;SDS011;1219;48.736;9.330;2022-08-04T08:35:49;2.33;;;2.23;;
2416;SDS011;1219;48.736;9.330;2022-08-04T08:38:17;2.50;;;2.30;;
2416;SDS011;1219;48.736;9.330;2022-08-04T08:40:59;3.17;;;2.27;;
2416;SDS011;1219;48.736;9.330;2022-08-04T08:54:14;3.57;;;2.10;;
2416;SDS011;1219;48.736;9.330;2022-08-04T08:56:51;3.23;;;2.20;;
2416;SDS011;1219;48.736;9.330;2022-08-04T09:04:52;3.80;;;2.57;;
2416;SDS011;1219;48.736;9.330;2022-08-04T09:09:57;2.37;;;1.80;;
2416;SDS011;1219;48.736;9.330;2022-08-04T09:14:54;2.60;;;2.23;;
2416;SDS011;1219;48.736;9.330;2022-08-04T09:17:28;3.20;;;2.10;;
2416;SDS011;1219;48.736;9.330;2022-08-04T09:19:56;2.10;;;2.00;;
2416;SDS011;1219;48.736;9.330;2022-08-04T09:22:35;2.50;;;2.30;;
2416;SDS011;1219;48.736;9.330;2022-08-04T09:27:50;1.80;;;1.70;;
2416;SDS011;1219;48.736;9.330;2022-08-04T09:30:20;4.70;;;1.90;;
2416;SDS011;1219;48.736;9.330;2022-08-04T09:32:54;3.00;;;1.87;;
2416;SDS011;1219;48.736;9.330;2022-08-04T09:35:24;2.17;;;2.00;;
2416;SDS011;1219;48.736;9.330;2022-08-04T09:40:32;2.27;;;1.90;;
2416;SDS011;1219;48.736;9.330;2022-08-04T09:49:04;2.80;;;2.20;;
2416;SDS011;1219;48.736;9.330;2022-08-04T09:54:13;3.50;;;2.10;;
2416;SDS011;1219;48.736;9.330;2022-08-04T09:56:47;2.10;;;2.00;;
2416;SDS011;1219;48.736;9.330;2022-08-04T10:01:45;2.10;;;1.90;;
2416;SDS011;1219;48.736;9.330;2022-08-04T10:04:12;2.00;;;1.87;;
2416;SDS011;1219;48.736;9.330;2022-08-04T10:09:12;2.00;;;1.90;;
2416;SDS011;1219;48.736;9.330;2022-08-04T10:14:35;3.10;;;2.40;;
2416;SDS011;1219;48.736;9.330;2022-08-04T10:19:33;2.40;;;2.07;;
2416;SDS011;1219;48.736;9.330;2022-08-04T10:24:38;5.43;;;2.07;;
2416;SDS011;1219;48.736;9.330;2022-08-04T10:27:08;2.10;;;1.90;;
2416;SDS011;1219;48.736;9.330;2022-08-04T10:32:13;1.97;;;1.80;;
2416;SDS011;1219;48.736;9.330;2022-08-04T10:34:42;2.50;;;2.00;;
2416;SDS011;1219;48.736;9.330;2022-08-04T10:42:39;2.10;;;1.90;;
2416;SDS011;1219;48.736;9.330;2022-08-04T10:45:55;2.00;;;1.90;;
2416;SDS011;1219;48.736;9.330;2022-08-04T10:50:48;2.73;;;1.60;;
2416;SDS011;1219;48.736;9.330;2022-08-04T10:53:19;2.00;;;1.80;;
2416;SDS011;1219;48.736;9.330;2022-08-04T10:55:58;2.00;;;1.90;;
2416;SDS011;1219;48.736;9.330;2022-08-04T10:58:29;2.13;;;1.93;;
2416;SDS011;1219;48.736;9.330;2022-08-04T11:00:57;2.33;;;1.60;;
2416;SDS011;1219;48.736;9.330;2022-08-04T11:03:39;2.23;;;1.70;;
2416;SDS011;1219;48.736;9.330;2022-08-04T11:06:06;2.13;;;1.60;;
2416;SDS011;1219;48.736;9.330;2022-08-04T11:08:38;1.77;;;1.67;;
2416;SDS011;1219;48.736;9.330;2022-08-04T11:11:29;1.92;;;1.38;;
2416;SDS011;1219;48.736;9.330;2022-08-04T11:14:03;1.75;;;1.65;;
2416;SDS011;1219;48.736;9.330;2022-08-04T11:16:32;1.90;;;1.50;;
2416;SDS011;1219;48.736;9.330;2022-08-04T11:21:42;2.35;;;1.38;;
2416;SDS011;1219;48.736;9.330;2022-08-04T11:24:15;1.67;;;1.58;;
2416;SDS011;1219;48.736;9.330;2022-08-04T11:26:44;3.60;;;1.40;;
2416;SDS011;1219;48.736;9.330;2022-08-04T11:29:19;1.50;;;1.40;;
2416;SDS011;1219;48.736;9.330;2022-08-04T11:31:47;1.70;;;1.60;;
2416;SDS011;1219;48.736;9.330;2022-08-04T11:34:17;2.95;;;1.75;;
2416;SDS011;1219;48.736;9.330;2022-08-04T11:44:46;4.03;;;1.50;;
2416;SDS011;1219;48.736;9.330;2022-08-04T11:47:29;1.70;;;1.50;;
2416;SDS011;1219;48.736;9.330;2022-08-04T11:50:03;1.58;;;1.48;;
2416;SDS011;1219;48.736;9.330;2022-08-04T11:52:30;1.40;;;1.30;;
2416;SDS011;1219;48.736;9.330;2022-08-04T11:54:57;1.70;;;1.33;;
2416;SDS011;1219;48.736;9.330;2022-08-04T11:57:24;1.63;;;1.50;;
2416;SDS011;1219;48.736;9.330;2022-08-04T11:59:51;1.60;;;1.30;;
2416;SDS011;1219;48.736;9.330;2022-08-04T12:05:05;1.23;;;1.23;;
2416;SDS011;1219;48.736;9.330;2022-08-04T12:10:17;2.72;;;1.40;;
2416;SDS011;1219;48.736;9.330;2022-08-04T12:15:15;2.08;;;1.50;;
2416;SDS011;1219;48.736;9.330;2022-08-04T12:20:16;1.55;;;1.38;;
2416;SDS011;1219;48.736;9.330;2022-08-04T12:22:45;2.55;;;1.50;;
2416;SDS011;1219;48.736;9.330;2022-08-04T12:25:17;1.20;;;1.20;;
2416;SDS011;1219;48.736;9.330;2022-08-04T12:30:11;1.40;;;1.30;;
2416;SDS011;1219;48.736;9.330;2022-08-04T12:32:38;2.25;;;1.58;;
2416;SDS011;1219;48.736;9.330;2022-08-04T12:35:08;1.50;;;1.40;;
2416;SDS011;1219;48.736;9.330;2022-08-04T12:40:13;1.60;;;1.50;;
2416;SDS011;1219;48.736;9.330;2022-08-04T12:42:44;1.50;;;1.40;;
2416;SDS011;1219;48.736;9.330;2022-08-04T12:45:12;1.42;;;1.33;;
2416;SDS011;1219;48.736;9.330;2022-08-04T12:47:38;1.58;;;1.48;;
2416;SDS011;1219;48.736;9.330;2022-08-04T12:50:05;1.42;;;1.40;;
2416;SDS011;1219;48.736;9.330;2022-08-04T12:52:33;1.48;;;1.38;;
2416;SDS011;1219;48.736;9.330;2022-08-04T12:55:05;2.15;;;1.50;;
2416;SDS011;1219;48.736;9.330;2022-08-04T12:57:32;1.60;;;1.50;;
2416;SDS011;1219;48.736;9.330;2022-08-04T12:59:59;2.95;;;1.88;;
2416;SDS011;1219;48.736;9.330;2022-08-04T13:02:26;2.05;;;1.67;;
2416;SDS011;1219;48.736;9.330;2022-08-04T13:04:54;1.50;;;1.40;;
2416;SDS011;1219;48.736;9.330;2022-08-04T13:07:23;1.50;;;1.40;;
2416;SDS011;1219;48.736;9.330;2022-08-04T13:09:51;1.55;;;1.40;;
2416;SDS011;1219;48.736;9.330;2022-08-04T13:12:20;1.58;;;1.25;;
2416;SDS011;1219;48.736;9.330;2022-08-04T13:14:48;1.45;;;1.35;;
2416;SDS011;1219;48.736;9.330;2022-08-04T13:17:15;1.75;;;1.65;;
2416;SDS011;1219;48.736;9.330;2022-08-04T13:19:48;1.40;;;1.30;;
2416;SDS011;1219;48.736;9.330;2022-08-04T13:22:22;1.70;;;1.60;;
2416;SDS011;1219;48.736;9.330;2022-08-04T13:24:48;1.70;;;1.60;;
2416;SDS011;1219;48.736;9.330;2022-08-04T13:27:15;1.55;;;1.45;;
2416;SDS011;1219;48.736;9.330;2022-08-04T13:29:42;1.40;;;1.30;;
2416;SDS011;1219;48.736;9.330;2022-08-04T13:32:08;2.42;;;1.60;;
2416;SDS011;1219;48.736;9.330;2022-08-04T13:34:35;2.17;;;1.60;;
2416;SDS011;1219;48.736;9.330;2022-08-04T13:37:04;2.03;;;1.48;;
2416;SDS011;1219;48.736;9.330;2022-08-04T13:39:31;1.23;;;1.23;;
2416;SDS011;1219;48.736;9.330;2022-08-04T13:41:59;3.75;;;1.48;;
2416;SDS011;1219;48.736;9.330;2022-08-04T13:44:33;1.60;;;1.50;;
2416;SDS011;1219;48.736;9.330;2022-08-04T13:47:05;1.60;;;1.50;;
2416;SDS011;1219;48.736;9.330;2022-08-04T13:49:31;1.50;;;1.40;;
2416;SDS011;1219;48.736;9.330;2022-08-04T13:51:58;1.60;;;1.50;;
2416;SDS011;1219;48.736;9.330;2022-08-04T13:54:46;1.70;;;1.60;;
2416;SDS011;1219;48.736;9.330;2022-08-04T13:57:18;1.55;;;1.45;;
2416;SDS011;1219;48.736;9.330;2022-08-04T13:59:49;1.85;;;1.42;;
2416;SDS011;1219;48.736;9.330;2022-08-04T14:05:04;1.60;;;1.50;;
2416;SDS011;1219;48.736;9.330;2022-08-04T14:07:33;1.77;;;1.67;;
2416;SDS011;1219;48.736;9.330;2022-08-04T14:10:09;1.90;;;1.40;;
2416;SDS011;1219;48.736;9.330;2022-08-04T14:12:35;1.50;;;1.40;;
2416;SDS011;1219;48.736;9.330;2022-08-04T14:15:07;1.45;;;1.45;;
2416;SDS011;1219;48.736;9.330;2022-08-04T14:17:53;1.95;;;1.35;;
2416;SDS011;1219;48.736;9.330;2022-08-04T14:20:19;1.85;;;1.42;;
2416;SDS011;1219;48.736;9.330;2022-08-04T14:22:45;2.88;;;1.50;;
2416;SDS011;1219;48.736;9.330;2022-08-04T14:25:13;1.40;;;1.30;;
2416;SDS011;1219;48.736;9.330;2022-08-04T14:27:52;2.83;;;1.38;;
2416;SDS011;1219;48.736;9.330;2022-08-04T14:30:19;1.55;;;1.30;;
2416;SDS011;1219;48.736;9.330;2022-08-04T14:33:07;1.50;;;1.40;;
2416;SDS011;1219;48.736;9.330;2022-08-04T14:35:34;1.27;;;1.23;;
2416;SDS011;1219;48.736;9.330;2022-08-04T14:38:09;1.60;;;1.50;;
2416;SDS011;1219;48.736;9.330;2022-08-04T14:40:39;2.00;;;1.50;;
2416;SDS011;1219;48.736;9.330;2022-08-04T14:43:06;1.48;;;1.42;;
2416;SDS011;1219;48.736;9.330;2022-08-04T14:45:34;1.60;;;1.50;;
2416;SDS011;1219;48.736;9.330;2022-08-04T14:48:11;1.90;;;1.40;;
2416;SDS011;1219;48.736;9.330;2022-08-04T14:50:38;1.70;;;1.60;;
2416;SDS011;1219;48.736;9.330;2022-08-04T14:53:06;1.50;;;1.40;;
2416;SDS011;1219;48.736;9.330;2022-08-04T14:55:32;1.80;;;1.50;;
2416;SDS011;1219;48.736;9.330;2022-08-04T14:57:58;2.75;;;1.60;;
2416;SDS011;1219;48.736;9.330;2022-08-04T15:00:26;1.60;;;1.50;;
2416;SDS011;1219;48.736;9.330;2022-08-04T15:02:53;1.80;;;1.70;;
2416;SDS011;1219;48.736;9.330;2022-08-04T15:05:21;1.98;;;1.50;;
2416;SDS011;1219;48.736;9.330;2022-08-04T15:07:48;2.85;;;1.60;;
2416;SDS011;1219;48.736;9.330;2022-08-04T15:10:14;2.63;;;1.95;;
2416;SDS011;1219;48.736;9.330;2022-08-04T15:12:40;1.90;;;1.63;;
2416;SDS011;1219;48.736;9.330;2022-08-04T15:15:07;1.50;;;1.40;;
2416;SDS011;1219;48.736;9.330;2022-08-04T15:17:33;1.88;;;1.40;;
2416;SDS011;1219;48.736;9.330;2022-08-04T15:19:59;1.58;;;1.48;;
2416;SDS011;1219;48.736;9.330;2022-08-04T15:22:25;1.50;;;1.40;;
2416;SDS011;1219;48.736;9.330;2022-08-04T15:24:51;2.10;;;1.50;;
2416;SDS011;1219;48.736;9.330;2022-08-04T15:27:17;1.70;;;1.40;;
2416;SDS011;1219;48.736;9.330;2022-08-04T15:29:44;1.60;;;1.50;;
2416;SDS011;1219;48.736;9.330;2022-08-04T15:32:12;1.70;;;1.60;;
2416;SDS011;1219;48.736;9.330;2022-08-04T15:34:44;1.73;;;1.63;;
2416;SDS011;1219;48.736;9.330;2022-08-04T15:37:10;1.50;;;1.40;;
2416;SDS011;1219;48.736;9.330;2022-08-04T15:39:43;1.50;;;1.40;;
2416;SDS011;1219;48.736;9.330;2022-08-04T15:44:44;2.40;;;1.60;;
2416;SDS011;1219;48.736;9.330;2022-08-04T15:47:12;2.80;;;1.40;;
2416;SDS011;1219;48.736;9.330;2022-08-04T15:49:38;1.52;;;1.42;;
2416;SDS011;1219;48.736;9.330;2022-08-04T15:52:07;1.77;;;1.38;;
2416;SDS011;1219;48.736;9.330;2022-08-04T15:54:33;2.38;;;1.60;;
2416;SDS011;1219;48.736;9.330;2022-08-04T15:57:01;1.88;;;1.60;;
2416;SDS011;1219;48.736;9.330;2022-08-04T16:02:27;2.65;;;1.70;;
2416;SDS011;1219;48.736;9.330;2022-08-04T16:12:57;2.00;;;1.90;;
2416;SDS011;1219;48.736;9.330;2022-08-04T16:18:02;1.80;;;1.50;;
2416;SDS011;1219;48.736;9.330;2022-08-04T16:20:28;2.05;;;1.95;;
2416;SDS011;1219;48.736;9.330;2022-08-04T16:22:56;1.60;;;1.50;;
2416;SDS011;1219;48.736;9.330;2022-08-04T16:28:08;4.57;;;1.65;;
2416;SDS011;1219;48.736;9.330;2022-08-04T16:31:03;4.32;;;1.60;;
2416;SDS011;1219;48.736;9.330;2022-08-04T16:33:30;1.70;;;1.60;;
2416;SDS011;1219;48.736;9.330;2022-08-04T16:35:56;1.73;;;1.63;;
2416;SDS011;1219;48.736;9.330;2022-08-04T16:38:22;2.45;;;1.77;;
2416;SDS011;1219;48.736;9.330;2022-08-04T16:40:52;2.65;;;1.60;;
2416;SDS011;1219;48.736;9.330;2022-08-04T16:43:18;2.47;;;2.28;;
2416;SDS011;1219;48.736;9.330;2022-08-04T16:48:28;1.92;;;1.83;;
2416;SDS011;1219;48.736;9.330;2022-08-04T16:53:21;2.35;;;2.10;;
2416;SDS011;1219;48.736;9.330;2022-08-04T16:55:49;2.97;;;2.08;;
2416;SDS011;1219;48.736;9.330;2022-08-04T16:58:31;2.30;;;2.10;;
2416;SDS011;1219;48.736;9.330;2022-08-04T17:00:58;1.93;;;1.83;;
2416;SDS011;1219;48.736;9.330;2022-08-04T17:03:31;2.20;;;2.00;;
2416;SDS011;1219;48.736;9.330;2022-08-04T17:06:04;1.93;;;1.80;;
2416;SDS011;1219;48.736;9.330;2022-08-04T17:08:30;1.60;;;1.50;;
2416;SDS011;1219;48.736;9.330;2022-08-04T17:10:57;3.43;;;1.60;;
2416;SDS011;1219;48.736;9.330;2022-08-04T17:13:25;1.90;;;1.80;;
2416;SDS011;1219;48.736;9.330;2022-08-04T17:15:53;2.40;;;2.13;;
2416;SDS011;1219;48.736;9.330;2022-08-04T17:18:20;2.40;;;2.20;;
2416;SDS011;1219;48.736;9.330;2022-08-04T17:20:47;2.30;;;2.10;;
2416;SDS011;1219;48.736;9.330;2022-08-04T17:25:56;2.33;;;1.83;;
2416;SDS011;1219;48.736;9.330;2022-08-04T17:28:22;2.30;;;2.10;;
2416;SDS011;1219;48.736;9.330;2022-08-04T17:30:49;1.97;;;1.87;;
2416;SDS011;1219;48.736;9.330;2022-08-04T17:33:15;3.57;;;1.90;;
2416;SDS011;1219;48.736;9.330;2022-08-04T17:35:45;2.17;;;2.07;;
2416;SDS011;1219;48.736;9.330;2022-08-04T17:38:11;1.80;;;1.70;;
2416;SDS011;1219;48.736;9.330;2022-08-04T17:40:52;3.57;;;2.00;;
2416;SDS011;1219;48.736;9.330;2022-08-04T17:43:20;2.00;;;1.90;;
2416;SDS011;1219;48.736;9.330;2022-08-04T17:46:14;2.60;;;2.40;;
2416;SDS011;1219;48.736;9.330;2022-08-04T17:48:40;2.33;;;1.90;;
2416;SDS011;1219;48.736;9.330;2022-08-04T17:51:16;2.00;;;1.90;;
2416;SDS011;1219;48.736;9.330;2022-08-04T17:53:42;2.70;;;1.83;;
2416;SDS011;1219;48.736;9.330;2022-08-04T17:56:27;2.10;;;2.00;;
2416;SDS011;1219;48.736;9.330;2022-08-04T17:59:05;6.97;;;1.90;;
2416;SDS011;1219;48.736;9.330;2022-08-04T18:04:52;2.30;;;1.83;;
2416;SDS011;1219;48.736;9.330;2022-08-04T18:09:37;2.43;;;2.03;;
2416;SDS011;1219;48.736;9.330;2022-08-04T18:12:08;2.07;;;1.97;;
2416;SDS011;1219;48.736;9.330;2022-08-04T18:14:44;2.00;;;1.90;;
2416;SDS011;1219;48.736;9.330;2022-08-04T18:17:11;3.30;;;2.00;;
2416;SDS011;1219;48.736;9.330;2022-08-04T18:19:37;4.60;;;1.90;;
2416;SDS011;1219;48.736;9.330;2022-08-04T18:22:04;3.13;;;2.40;;
2416;SDS011;1219;48.736;9.330;2022-08-04T18:24:32;2.03;;;1.93;;
2416;SDS011;1219;48.736;9.330;2022-08-04T18:26:58;2.33;;;2.10;;
2416;SDS011;1219;48.736;9.330;2022-08-04T18:29:24;5.70;;;2.27;;
2416;SDS011;1219;48.736;9.330;2022-08-04T18:31:50;5.30;;;2.50;;
2416;SDS011;1219;48.736;9.330;2022-08-04T18:34:16;2.90;;;2.70;;
2416;SDS011;1219;48.736;9.330;2022-08-04T18:36:42;2.70;;;2.50;;
2416;SDS011;1219;48.736;9.330;2022-08-04T18:39:08;2.50;;;2.30;;
2416;SDS011;1219;48.736;9.330;2022-08-04T18:41:34;2.93;;;2.73;;
2416;SDS011;1219;48.736;9.330;2022-08-04T18:44:00;3.20;;;3.00;;
2416;SDS011;1219;48.736;9.330;2022-08-04T18:46:26;2.83;;;2.63;;
2416;SDS011;1219;48.736;9.330;2022-08-04T18:48:52;2.60;;;2.40;;
2416;SDS011;1219;48.736;9.330;2022-08-04T18:51:19;2.80;;;2.60;;
2416;SDS011;1219;48.736;9.330;2022-08-04T18:53:45;4.30;;;2.90;;
2416;SDS011;1219;48.736;9.330;2022-08-04T18:56:12;2.77;;;2.57;;
2416;SDS011;1219;48.736;9.330;2022-08-04T18:58:38;2.93;;;2.73;;
2416;SDS011;1219;48.736;9.330;2022-08-04T19:01:05;2.90;;;2.73;;
2416;SDS011;1219;48.736;9.330;2022-08-04T19:03:32;2.50;;;2.30;;
2416;SDS011;1219;48.736;9.330;2022-08-04T19:05:59;2.60;;;2.40;;
2416;SDS011;1219;48.736;9.330;2022-08-04T19:08:25;4.77;;;2.57;;
2416;SDS011;1219;48.736;9.330;2022-08-04T19:10:51;3.17;;;2.80;;
2416;SDS011;1219;48.736;9.330;2022-08-04T19:13:17;3.50;;;2.63;;
2416;SDS011;1219;48.736;9.330;2022-08-04T19:15:43;3.00;;;2.73;;
2416;SDS011;1219;48.736;9.330;2022-08-04T19:18:09;3.07;;;2.10;;
2416;SDS011;1219;48.736;9.330;2022-08-04T19:20:35;2.60;;;2.30;;
2416;SDS011;1219;48.736;9.330;2022-08-04T19:23:01;2.40;;;2.20;;
2416;SDS011;1219;48.736;9.330;2022-08-04T19:25:27;2.90;;;2.70;;
2416;SDS011;1219;48.736;9.330;2022-08-04T19:27:53;2.33;;;2.23;;
2416;SDS011;1219;48.736;9.330;2022-08-04T19:30:19;2.47;;;2.30;;
2416;SDS011;1219;48.736;9.330;2022-08-04T19:32:45;3.03;;;2.77;;
2416;SDS011;1219;48.736;9.330;2022-08-04T19:35:11;2.70;;;2.17;;